Time;durP1;ratioP1;P1;durP2;ratioP2;P2;SDS_P1;SDS_P2;PMS_P1;PMS_P2;Temp;Humidity;BMP_temperature;BMP_pressure;BME280_temperature;BME280_humidity;BME280_pressure;Samples;Min_cycle;Max_cycle;Signal;HPM_P1;HPM_P2
2021/05/04 00:01:16;;;;;;;1999.90;999.90;;;12.40;1.40;;;;;;5059460;28;20192;-81
2021/05/04 00:03:42;;;;;;;1999.90;999.90;;;12.40;1.50;;;;;;5059408;28;20168;-81
2021/05/04 00:06:07;;;;;;;1999.90;999.90;;;12.40;1.10;;;;;;5025228;28;20172;-81
2021/05/04 00:08:33;;;;;;;1999.90;999.90;;;12.50;1.00;;;;;;5060079;28;20299;-81
2021/05/04 00:10:59;;;;;;;1999.90;999.90;;;12.50;1.20;;;;;;5060054;28;20200;-81
2021/05/04 00:13:25;;;;;;;1999.90;999.90;;;12.50;1.00;;;;;;5059029;28;20172;-80
2021/05/04 00:15:50;;;;;;;1999.90;999.90;;;12.50;1.00;;;;;;5059050;28;20175;-81
2021/05/04 00:18:16;;;;;;;1999.90;999.90;;;12.50;1.00;;;;;;5059401;28;20529;-81
2021/05/04 00:20:42;;;;;;;1999.90;999.90;;;12.60;1.00;;;;;;5041705;28;20660;-81
2021/05/04 00:23:08;;;;;;;1999.90;999.90;;;12.60;1.00;;;;;;5059256;28;20192;-81
2021/05/04 00:25:34;;;;;;;1999.90;999.90;;;12.60;1.00;;;;;;5041161;28;20547;-81
2021/05/04 00:27:59;;;;;;;1999.90;999.90;;;12.60;1.00;;;;;;5059428;28;20180;-81
2021/05/04 00:30:25;;;;;;;1999.90;999.90;;;12.60;1.00;;;;;;5058690;28;20170;-81
2021/05/04 00:32:51;;;;;;;1999.90;999.90;;;12.60;1.00;;;;;;5058832;28;20198;-81
2021/05/04 00:35:17;;;;;;;1999.90;999.90;;;12.70;1.00;;;;;;5058991;28;20165;-81
2021/05/04 00:37:42;;;;;;;1999.90;999.90;;;12.70;1.00;;;;;;5040871;28;20564;-81
2021/05/04 00:40:09;;;;;;;1999.90;999.90;;;12.70;1.00;;;;;;5058766;28;20188;-80
2021/05/04 00:42:35;;;;;;;1999.90;999.90;;;12.80;1.00;;;;;;5059077;28;20635;-81
2021/05/04 00:45:00;;;;;;;1999.90;999.90;;;12.70;1.00;;;;;;5058668;28;20168;-81
2021/05/04 01:11:44;;;;;;;1999.90;999.90;;;12.70;1.00;;;;;;5058575;28;20155;-81
2021/05/04 01:14:10;;;;;;;1999.90;999.90;;;12.70;1.00;;;;;;5058581;28;20169;-79
2021/05/04 01:16:41;;;;;;;1999.90;999.90;;;12.70;1.00;;;;;;5041091;28;20191;-81
2021/05/04 01:19:07;;;;;;;1999.90;999.90;;;12.60;1.00;;;;;;5058240;28;20137;-81
2021/05/04 01:21:32;;;;;;;1999.90;999.90;;;12.70;1.00;;;;;;5058675;28;20563;-81
2021/05/04 01:23:58;;;;;;;1999.90;999.90;;;12.70;1.00;;;;;;5059070;28;20252;-81
2021/05/04 01:26:24;;;;;;;1999.90;999.90;;;12.70;1.00;;;;;;5059007;28;20226;-81
2021/05/04 01:28:49;;;;;;;1999.90;999.90;;;12.60;1.00;;;;;;5059340;28;20729;-81
2021/05/04 01:31:15;;;;;;;1999.90;999.90;;;12.60;1.00;;;;;;5058833;28;20171;-80
2021/05/04 01:33:41;;;;;;;1999.90;999.90;;;12.60;1.00;;;;;;5058680;28;20644;-80
2021/05/04 01:36:07;;;;;;;1999.90;999.90;;;12.60;1.00;;;;;;5058856;28;20244;-81
2021/05/04 01:38:32;;;;;;;1999.90;999.90;;;12.60;1.00;;;;;;5058972;28;20199;-80
2021/05/04 01:40:58;;;;;;;1999.90;999.90;;;12.60;1.00;;;;;;5058644;28;20458;-80
2021/05/04 01:43:24;;;;;;;1999.90;999.90;;;12.70;1.30;;;;;;5040630;28;20200;-80
2021/05/04 01:45:49;;;;;;;1999.90;999.90;;;12.70;1.00;;;;;;5058458;28;20192;-80
2021/05/04 01:48:15;;;;;;;1999.90;999.90;;;12.70;1.00;;;;;;5058365;28;20185;-80
2021/05/04 01:50:41;;;;;;;1999.90;999.90;;;12.70;1.00;;;;;;5058437;28;20199;-80
2021/05/04 01:53:06;;;;;;;1999.90;999.90;;;12.70;1.00;;;;;;5058332;28;20251;-80
2021/05/04 01:55:32;;;;;;;1999.90;999.90;;;12.70;1.00;;;;;;5058689;28;20177;-80
2021/05/04 01:57:58;;;;;;;1999.90;999.90;;;12.70;1.00;;;;;;5057978;28;20308;-80
2021/05/04 02:00:23;;;;;;;1999.90;999.90;;;12.70;1.00;;;;;;5058378;28;20196;-80
2021/05/04 02:02:50;;;;;;;1999.90;999.90;;;12.70;1.00;;;;;;5058554;28;20169;-80
2021/05/04 02:08:37;;;;;;;1999.90;999.90;;;12.80;1.00;;;;;;5061803;28;20260;-80
2021/05/04 02:11:04;;;;;;;1999.90;999.90;;;12.80;1.00;;;;;;5044393;28;20639;-80
2021/05/04 02:13:30;;;;;;;1999.90;999.90;;;12.80;1.00;;;;;;5061708;28;20543;-80
2021/05/04 02:15:55;;;;;;;1999.90;999.90;;;12.90;1.00;;;;;;5061528;28;20165;-80
2021/05/04 02:18:21;;;;;;;1999.90;999.90;;;13.00;1.00;;;;;;5061793;28;20667;-80
2021/05/04 02:20:47;;;;;;;1999.90;999.90;;;13.00;1.00;;;;;;5061514;28;20215;-80
2021/05/04 02:23:13;;;;;;;1999.90;999.90;;;13.00;1.00;;;;;;5061009;28;20157;-79
2021/05/04 02:25:38;;;;;;;1999.90;999.90;;;13.00;1.00;;;;;;5061716;28;20161;-79
2021/05/04 02:28:04;;;;;;;1999.90;999.90;;;13.00;1.00;;;;;;5060845;28;20419;-80
2021/05/04 02:30:34;;;;;;;1999.90;999.90;;;13.00;1.00;;;;;;5061478;28;20157;-80
2021/05/04 02:33:01;;;;;;;1999.90;999.90;;;13.00;1.00;;;;;;5061435;28;20149;-80
2021/05/04 02:35:27;;;;;;;1999.90;999.90;;;12.90;1.00;;;;;;5061409;28;20207;-80
2021/05/04 02:37:53;;;;;;;1999.90;999.90;;;12.90;1.00;;;;;;5060990;28;20195;-80
2021/05/04 02:40:19;;;;;;;1999.90;999.90;;;12.80;1.70;;;;;;5060412;28;20191;-79
2021/05/04 02:42:45;;;;;;;1999.90;999.90;;;12.60;5.20;;;;;;5060194;28;20395;-79
2021/05/04 02:45:11;;;;;;;1999.90;999.90;;;12.40;8.60;;;;;;5042715;28;20570;-79
2021/05/04 02:47:37;;;;;;;1999.90;999.90;;;12.30;13.00;;;;;;5061443;28;20176;-80
2021/05/04 02:50:03;;;;;;;1999.90;999.90;;;12.20;19.00;;;;;;5060036;28;20531;-80
2021/05/04 02:52:29;;;;;;;1999.90;999.90;;;12.10;32.00;;;;;;5059733;28;20632;-80
2021/05/04 02:54:55;;;;;;;1999.90;999.90;;;12.00;53.00;;;;;;5060706;28;20169;-79
2021/05/04 02:57:21;;;;;;;1999.90;999.90;;;11.70;86.70;;;;;;5060417;28;20272;-79
2021/05/04 02:59:47;;;;;;;1999.90;999.90;;;11.50;92.70;;;;;;5060538;28;20218;-80
2021/05/04 03:02:12;;;;;;;1999.90;999.90;;;11.20;95.00;;;;;;5060301;28;20252;-81
2021/05/04 03:04:40;;;;;;;1999.90;999.90;;;11.10;99.30;;;;;;5059845;28;20192;-80
2021/05/04 03:07:06;;;;;;;1999.90;999.90;;;11.10;99.90;;;;;;5185215;22;20849;-80
2021/05/04 03:09:32;;;;;;;1999.90;999.90;;;10.90;99.90;;;;;;5040622;28;20698;-80
2021/05/04 03:11:58;;;;;;;1999.90;999.90;;;10.80;99.90;;;;;;5041152;28;20161;-80
2021/05/04 03:14:24;;;;;;;1999.90;999.90;;;10.60;99.90;;;;;;5040460;28;20240;-80
2021/05/04 03:16:51;;;;;;;1999.90;999.90;;;10.50;99.90;;;;;;5040301;28;20233;-80
2021/05/04 03:19:17;;;;;;;1999.90;999.90;;;10.50;99.90;;;;;;5039599;28;20651;-80
2021/05/04 03:21:42;;;;;;;1999.90;999.90;;;10.40;99.90;;;;;;5039935;28;20201;-80
2021/05/04 03:24:09;;;;;;;1999.90;999.90;;;10.40;99.90;;;;;;5040931;28;20495;-80
2021/05/04 03:26:34;;;;;;;1999.90;999.90;;;10.40;99.90;;;;;;5040044;28;20162;-80
2021/05/04 03:29:00;;;;;;;1999.90;999.90;;;10.30;99.90;;;;;;5039777;28;20168;-80
2021/05/04 03:31:26;;;;;;;1999.90;999.90;;;10.20;99.90;;;;;;5022271;28;20204;-81
2021/05/04 03:33:51;;;;;;;1999.90;999.90;;;10.20;99.90;;;;;;5039613;28;20209;-80
2021/05/04 03:36:17;;;;;;;1999.90;999.90;;;10.20;99.90;;;;;;5039099;28;20169;-78
2021/05/04 03:38:43;;;;;;;1999.90;999.90;;;10.30;99.90;;;;;;5021855;28;20193;-80
2021/05/04 03:41:09;;;;;;;1999.90;999.90;;;10.30;99.90;;;;;;5039732;28;20260;-80
2021/05/04 03:43:35;;;;;;;1999.90;999.90;;;10.20;99.90;;;;;;5020777;28;20492;-80
2021/05/04 03:46:01;;;;;;;1999.90;999.90;;;10.10;99.90;;;;;;5039310;28;20651;-79
2021/05/04 03:48:27;;;;;;;1999.90;999.90;;;10.10;99.90;;;;;;5038839;28;20204;-79
2021/05/04 03:50:53;;;;;;;1999.90;999.90;;;10.10;99.90;;;;;;5039666;28;20240;-80
2021/05/04 03:53:18;;;;;;;1999.90;999.90;;;10.10;99.90;;;;;;5040277;28;20204;-79
2021/05/04 03:55:46;;;;;;;1999.90;999.90;;;10.20;99.90;;;;;;5040294;28;20188;-79
2021/05/04 03:58:12;;;;;;;1999.90;999.90;;;10.20;99.90;;;;;;5039585;28;20192;-79
2021/05/04 04:00:37;;;;;;;1999.90;999.90;;;10.10;99.90;;;;;;5039795;28;20204;-79
2021/05/04 04:03:03;;;;;;;1999.90;999.90;;;10.00;99.90;;;;;;5022062;28;20628;-79
2021/05/04 04:05:29;;;;;;;1999.90;999.90;;;10.00;99.90;;;;;;5040027;28;20161;-79
2021/05/04 04:07:55;;;;;;;1999.90;999.90;;;9.90;99.90;;;;;;5040297;28;20196;-79
2021/05/04 04:10:20;;;;;;;1999.90;999.90;;;10.00;99.90;;;;;;5039522;28;20174;-78
2021/05/04 04:12:46;;;;;;;1999.90;999.90;;;9.90;99.90;;;;;;5039919;28;20165;-79
2021/05/04 04:15:13;;;;;;;1999.90;999.90;;;9.90;99.90;;;;;;5039600;28;20174;-80
2021/05/04 04:17:42;;;;;;;1999.90;999.90;;;9.90;99.90;;;;;;5021798;28;20189;-79
2021/05/04 04:20:08;;;;;;;1999.90;999.90;;;9.90;99.90;;;;;;5021154;28;20212;-80
2021/05/04 04:22:35;;;;;;;1999.90;999.90;;;10.00;99.90;;;;;;5039803;28;20221;-80
2021/05/04 04:25:02;;;;;;;1999.90;999.90;;;10.20;99.90;;;;;;5021502;28;20255;-79
2021/05/04 04:27:28;;;;;;;1999.90;999.90;;;10.10;99.90;;;;;;5039247;28;20181;-80
2021/05/04 04:29:54;;;;;;;1999.90;999.90;;;10.10;99.90;;;;;;5039588;28;20157;-80
2021/05/04 04:32:20;;;;;;;1999.90;999.90;;;10.10;99.90;;;;;;5022481;28;20168;-79
2021/05/04 04:34:46;;;;;;;1999.90;999.90;;;10.00;99.90;;;;;;5038801;28;20169;-81
2021/05/04 04:37:12;;;;;;;1999.90;999.90;;;10.00;99.90;;;;;;5038075;28;20511;-80
2021/05/04 04:39:38;;;;;;;1999.90;999.90;;;9.90;99.90;;;;;;5038607;28;20195;-80
2021/05/04 04:42:04;;;;;;;1999.90;999.90;;;10.00;99.90;;;;;;5038133;28;20169;-81
2021/05/04 04:44:30;;;;;;;1999.90;999.90;;;10.00;99.90;;;;;;5038035;28;20161;-79
2021/05/04 04:46:59;;;;;;;1999.90;999.90;;;9.90;99.90;;;;;;5020683;28;20197;-80
2021/05/04 04:49:26;;;;;;;1999.90;999.90;;;9.90;99.90;;;;;;5038814;28;20193;-80
2021/05/04 04:51:51;;;;;;;1999.90;999.90;;;9.90;99.90;;;;;;5038682;28;20158;-80
2021/05/04 04:54:17;;;;;;;1999.90;999.90;;;9.90;99.90;;;;;;5161616;22;20266;-83
2021/05/04 04:56:43;;;;;;;1999.90;999.90;;;9.80;99.90;;;;;;5081571;28;20243;-82
2021/05/04 04:59:09;;;;;;;1999.90;999.90;;;9.80;99.90;;;;;;5082866;28;20171;-83
2021/05/04 05:01:35;;;;;;;1999.90;999.90;;;9.90;99.90;;;;;;5080141;28;20433;-83
2021/05/04 05:04:03;;;;;;;1999.90;999.90;;;9.70;99.90;;;;;;5079456;28;20402;-82
2021/05/04 05:06:29;;;;;;;1999.90;999.90;;;9.80;99.90;;;;;;5081456;28;20160;-82
2021/05/04 05:08:55;;;;;;;1999.90;999.90;;;9.90;99.90;;;;;;5079384;28;20275;-82
2021/05/04 05:11:20;;;;;;;1999.90;999.90;;;9.80;99.90;;;;;;5081771;28;20399;-82
2021/05/04 05:13:47;;;;;;;1999.90;999.90;;;9.70;99.90;;;;;;5080451;28;20416;-83
2021/05/04 05:16:14;;;;;;;1999.90;999.90;;;9.80;99.90;;;;;;5082339;28;20822;-83
2021/05/04 05:18:40;;;;;;;1999.90;999.90;;;9.80;99.90;;;;;;5081466;28;20184;-82
2021/05/04 05:21:07;;;;;;;1999.90;999.90;;;9.90;99.90;;;;;;5081257;28;20184;-81
2021/05/04 05:23:33;;;;;;;1999.90;999.90;;;10.00;99.90;;;;;;5080733;28;20167;-82
2021/05/04 05:26:08;;;;;;;1999.90;999.90;;;10.00;99.90;;;;;;5081067;28;20164;-82
2021/05/04 05:28:45;;;;;;;1999.90;999.90;;;9.80;99.90;;;;;;5079906;28;20539;-81
2021/05/04 05:31:12;;;;;;;1999.90;999.90;;;9.80;99.90;;;;;;5078846;28;20184;-82
2021/05/04 05:33:38;;;;;;;1999.90;999.90;;;9.80;99.90;;;;;;5079185;28;20250;-81
2021/05/04 05:36:04;;;;;;;1999.90;999.90;;;9.80;99.90;;;;;;5078909;28;20616;-82
2021/05/04 05:38:35;;;;;;;1999.90;999.90;;;9.80;99.90;;;;;;5078596;28;20192;-81
2021/05/04 05:41:04;;;;;;;1999.90;999.90;;;9.80;99.90;;;;;;5078566;28;20480;-83
2021/05/04 05:43:30;;;;;;;1999.90;999.90;;;9.80;99.90;;;;;;5082758;28;20164;-82
2021/05/04 05:45:56;;;;;;;1999.90;999.90;;;9.90;99.90;;;;;;5081647;28;20183;-81
2021/05/04 05:48:21;;;;;;;1999.90;999.90;;;9.90;99.90;;;;;;5080083;28;20472;-81
2021/05/04 05:50:47;;;;;;;1999.90;999.90;;;10.10;99.90;;;;;;5079265;28;20168;-81
2021/05/04 05:53:13;;;;;;;1999.90;999.90;;;10.00;99.90;;;;;;5078052;28;20263;-80
2021/05/04 05:55:39;;;;;;;1999.90;999.90;;;10.10;99.90;;;;;;5079027;28;20608;-81
2021/05/04 05:58:07;;;;;;;1999.90;999.90;;;10.00;99.90;;;;;;5079046;28;20244;-81
2021/05/04 06:00:33;;;;;;;1999.90;999.90;;;10.00;99.90;;;;;;5078676;28;20438;-80
2021/05/04 06:03:03;;;;;;;1999.90;999.90;;;10.00;99.90;;;;;;5081287;28;20136;-80
2021/05/04 06:05:30;;;;;;;1999.90;999.90;;;10.00;99.90;;;;;;5080536;28;20159;-80
2021/05/04 06:08:17;;;;;;;1999.90;999.90;;;10.10;99.90;;;;;;5077553;28;20184;-81
2021/05/04 06:10:47;;;;;;;1999.90;999.90;;;10.10;99.90;;;;;;5079053;28;20643;-82
2021/05/04 06:13:12;;;;;;;1999.90;999.90;;;10.20;99.90;;;;;;5078432;28;20168;-81
2021/05/04 06:15:43;;;;;;;1999.90;999.90;;;10.40;99.90;;;;;;5079933;28;20171;-82
2021/05/04 06:18:09;;;;;;;1999.90;999.90;;;10.30;99.90;;;;;;5078174;28;20581;-81
2021/05/04 06:20:37;;;;;;;1999.90;999.90;;;10.20;99.90;;;;;;5077060;28;20192;-81
2021/05/04 06:23:05;;;;;;;1999.90;999.90;;;10.20;99.90;;;;;;5078235;28;20171;-81
2021/05/04 06:25:31;;;;;;;1999.90;999.90;;;10.20;99.90;;;;;;5078483;28;20172;-82
2021/05/04 06:28:01;;;;;;;1999.90;999.90;;;10.10;99.90;;;;;;5079594;28;20188;-81
2021/05/04 06:30:31;;;;;;;1999.90;999.90;;;10.10;99.90;;;;;;5079393;28;20238;-81
2021/05/04 06:33:02;;;;;;;1999.90;999.90;;;10.10;99.90;;;;;;5080736;28;20215;-81
2021/05/04 06:35:27;;;;;;;1999.90;999.90;;;10.20;99.90;;;;;;5081218;28;20188;-81
2021/05/04 06:37:54;;;;;;;1999.90;999.90;;;10.20;99.90;;;;;;5078188;28;20192;-80
2021/05/04 06:40:20;;;;;;;1999.90;999.90;;;10.20;99.90;;;;;;5079861;28;20187;-81
2021/05/04 06:42:45;;;;;;;1999.90;999.90;;;10.30;99.90;;;;;;5080287;28;20156;-81
2021/05/04 06:45:11;;;;;;;1999.90;999.90;;;10.30;99.90;;;;;;5079052;28;20631;-81
2021/05/04 06:47:50;;;;;;;;;;;;;;;;;;;;;
2021/05/04 06:50:47;;;;;;;1999.90;999.90;;;10.40;99.90;;;;;;5076017;28;20402;-82
2021/05/04 06:53:12;;;;;;;1999.90;999.90;;;10.20;99.90;;;;;;5079252;28;20176;-82
2021/05/04 06:55:38;;;;;;;1999.90;999.90;;;10.20;99.90;;;;;;5081514;28;20167;-82
2021/05/04 07:01:09;;;;;;;1999.90;999.90;;;10.40;99.90;;;;;;5078861;28;20449;-81
2021/05/04 07:03:52;;;;;;;;;;;;;;;;;;;;;
2021/05/04 07:06:19;;;;;;;1999.90;999.90;;;10.70;99.90;;;;;;5081054;28;20231;-82
2021/05/04 07:08:45;;;;;;;1999.90;999.90;;;11.00;99.90;;;;;;5081494;28;20241;-81
2021/05/04 07:11:11;;;;;;;1999.90;999.90;;;11.10;99.90;;;;;;5080964;28;20171;-81
2021/05/04 07:13:41;;;;;;;1999.90;999.90;;;10.90;99.90;;;;;;5081309;28;20399;-82
2021/05/04 07:16:06;;;;;;;1999.90;999.90;;;10.80;99.90;;;;;;5080185;28;20406;-82
2021/05/04 07:18:32;;;;;;;1999.90;999.90;;;10.70;99.90;;;;;;5079579;28;20186;-82
2021/05/04 07:21:06;;;;;;;1999.90;999.90;;;10.70;99.90;;;;;;5079118;28;20264;-81
2021/05/04 07:23:35;;;;;;;1999.90;999.90;;;10.70;99.90;;;;;;5079398;28;20148;-82
2021/05/04 07:26:04;;;;;;;1999.90;999.90;;;10.80;99.90;;;;;;5079897;28;20164;-80
2021/05/04 07:28:36;;;;;;;1999.90;999.90;;;10.70;99.90;;;;;;5080347;28;20191;-80
2021/05/04 07:31:04;;;;;;;1999.90;999.90;;;10.80;99.90;;;;;;5079770;28;20168;-80
2021/05/04 07:33:32;;;;;;;1999.90;999.90;;;10.90;99.90;;;;;;5077731;28;20221;-81
2021/05/04 07:35:58;;;;;;;1999.90;999.90;;;10.80;99.90;;;;;;5079329;28;20171;-80
2021/05/04 07:38:25;;;;;;;1999.90;999.90;;;10.70;99.90;;;;;;5078344;28;20195;-80
2021/05/04 07:41:07;;;;;;;1999.90;999.90;;;10.70;99.90;;;;;;5076136;28;20476;-81
2021/05/04 07:43:40;;;;;;;1999.90;999.90;;;10.60;99.90;;;;;;5080689;28;20181;-80
2021/05/04 07:46:08;;;;;;;1999.90;999.90;;;10.60;99.90;;;;;;5080589;28;20215;-81
2021/05/04 07:48:37;;;;;;;1999.90;999.90;;;10.60;99.90;;;;;;5167418;22;20220;-82
2021/05/04 07:51:05;;;;;;;1999.90;999.90;;;10.60;99.90;;;;;;5041037;28;20200;-81
2021/05/04 07:53:37;;;;;;;1999.90;999.90;;;10.70;99.90;;;;;;5040420;28;20168;-80
2021/05/04 07:56:03;;;;;;;1999.90;999.90;;;10.80;99.90;;;;;;5058347;28;20149;-80
2021/05/04 07:58:30;;;;;;;1999.90;999.90;;;10.80;99.90;;;;;;5040584;28;20199;-81
2021/05/04 08:00:56;;;;;;;1999.90;999.90;;;10.90;99.90;;;;;;5044705;28;20197;-80
2021/05/04 08:03:21;;;;;;;1999.90;999.90;;;11.00;99.90;;;;;;5045547;28;20701;-81
2021/05/04 08:05:53;;;;;;;1999.90;999.90;;;11.00;99.90;;;;;;5045290;28;20930;-81
2021/05/04 08:08:35;;;;;;;1999.90;999.90;;;11.10;99.90;;;;;;5064408;28;20620;-82
2021/05/04 08:11:01;;;;;;;1999.90;999.90;;;11.10;99.90;;;;;;5044775;28;20192;-83
2021/05/04 08:13:29;;;;;;;1999.90;999.90;;;11.20;99.90;;;;;;5059367;28;20173;-80
2021/05/04 08:15:59;;;;;;;1999.90;999.90;;;11.20;99.90;;;;;;5059663;28;20406;-80
2021/05/04 08:18:33;;;;;;;1999.90;999.90;;;11.20;99.90;;;;;;5056786;28;20225;-81
2021/05/04 08:20:59;;;;;;;1999.90;999.90;;;11.20;99.90;;;;;;5038030;28;20199;-80
2021/05/04 08:23:25;;;;;;;1999.90;999.90;;;11.20;99.90;;;;;;5037679;28;20644;-81
2021/05/04 08:25:52;;;;;;;1999.90;999.90;;;11.10;99.90;;;;;;5041072;28;20441;-80
2021/05/04 08:28:18;;;;;;;1999.90;999.90;;;11.00;99.90;;;;;;5060396;28;20244;-79
2021/05/04 08:30:44;;;;;;;1999.90;999.90;;;11.00;99.90;;;;;;5063012;28;20581;-80
2021/05/04 08:33:10;;;;;;;1999.90;999.90;;;11.00;99.90;;;;;;5063263;28;20425;-81
2021/05/04 08:35:38;;;;;;;1999.90;999.90;;;10.90;99.90;;;;;;5061776;28;20264;-80
2021/05/04 08:38:04;;;;;;;1999.90;999.90;;;11.00;99.90;;;;;;5065451;28;20180;-78
2021/05/04 08:40:30;;;;;;;1999.90;999.90;;;10.90;99.90;;;;;;5063437;28;20215;-80
2021/05/04 08:42:56;;;;;;;1999.90;999.90;;;11.00;99.90;;;;;;5055647;28;20386;-80
2021/05/04 08:45:22;;;;;;;1999.90;999.90;;;11.10;99.90;;;;;;5054672;28;20864;-79
2021/05/04 08:47:50;;;;;;;1999.90;999.90;;;11.00;99.90;;;;;;5054403;28;20277;-80
2021/05/04 08:50:20;;;;;;;1999.90;999.90;;;11.00;99.90;;;;;;5054874;28;20399;-79
2021/05/04 08:52:48;;;;;;;1999.90;999.90;;;11.00;99.90;;;;;;5036219;28;20172;-79
2021/05/04 08:55:15;;;;;;;1999.90;999.90;;;10.90;99.90;;;;;;5053983;28;20160;-79
2021/05/04 08:57:40;;;;;;;1999.90;999.90;;;10.90;99.90;;;;;;5053903;28;20187;-79
2021/05/04 09:00:11;;;;;;;1999.90;999.90;;;11.10;99.90;;;;;;5053637;28;20687;-80
2021/05/04 09:02:58;;;;;;;1999.90;999.90;;;11.20;99.90;;;;;;5054038;28;20164;-79
2021/05/04 09:05:24;;;;;;;1999.90;999.90;;;11.30;99.90;;;;;;5053949;28;20136;-80
2021/05/04 09:07:51;;;;;;;1999.90;999.90;;;11.50;99.90;;;;;;5053748;28;20259;-78
2021/05/04 09:21:14;;;;;;;1999.90;999.90;;;12.40;99.90;;;;;;5057540;28;20675;-80
2021/05/04 09:23:42;;;;;;;1999.90;999.90;;;12.30;99.90;;;;;;5039431;28;20161;-79
2021/05/04 09:26:19;;;;;;;1999.90;999.90;;;12.20;99.90;;;;;;5039356;28;20168;-79
2021/05/04 09:28:49;;;;;;;1999.90;999.90;;;12.20;99.90;;;;;;5039991;28;20552;-79
2021/05/04 09:31:29;;;;;;;1999.90;999.90;;;12.20;99.90;;;;;;5060760;28;20164;-80
2021/05/04 09:34:05;;;;;;;1999.90;999.90;;;12.10;99.90;;;;;;5059440;28;20156;-80
2021/05/04 09:36:51;;;;;;;1999.90;999.90;;;11.90;99.90;;;;;;5041464;28;20161;-81
2021/05/04 09:39:31;;;;;;;1999.90;999.90;;;12.20;99.90;;;;;;5041461;28;20222;-80
2021/05/04 09:41:59;;;;;;;1999.90;999.90;;;12.20;99.90;;;;;;5040882;28;20196;-82
2021/05/04 09:44:47;;;;;;;1999.90;999.90;;;12.10;99.90;;;;;;5058964;28;20161;-79
2021/05/04 09:47:24;;;;;;;1999.90;999.90;;;12.30;99.90;;;;;;5061688;28;20188;-80
2021/05/04 09:49:50;;;;;;;1999.90;999.90;;;12.30;99.90;;;;;;5061237;28;20156;-81
2021/05/04 09:52:25;;;;;;;1999.90;999.90;;;12.30;99.90;;;;;;5061587;28;20169;-82
2021/05/04 09:55:09;;;;;;;1999.90;999.90;;;12.20;99.90;;;;;;5044901;28;20691;-81
2021/05/04 09:57:52;;;;;;;1999.90;999.90;;;12.40;99.90;;;;;;5043536;28;20564;-81
2021/05/04 10:00:26;;;;;;;1999.90;999.90;;;12.50;99.90;;;;;;5061595;28;20178;-80
2021/05/04 10:02:54;;;;;;;1999.90;999.90;;;12.70;99.90;;;;;;5059476;28;20149;-80
2021/05/04 10:05:19;;;;;;;1999.90;999.90;;;12.90;99.90;;;;;;5058651;28;20520;-82
2021/05/04 10:07:48;;;;;;;1999.90;999.90;;;13.00;99.90;;;;;;5039680;28;20180;-81
2021/05/04 10:10:16;;;;;;;1999.90;999.90;;;13.10;99.90;;;;;;5058860;28;20169;-81
2021/05/04 10:12:45;;;;;;;1999.90;999.90;;;13.30;99.90;;;;;;5041552;28;20536;-80
2021/05/04 10:15:13;;;;;;;1999.90;999.90;;;13.50;99.90;;;;;;5059476;28;20640;-82
2021/05/04 10:17:40;;;;;;;1999.90;999.90;;;13.60;99.90;;;;;;5044062;28;20196;-81
2021/05/04 10:20:14;;;;;;;1999.90;999.90;;;13.60;99.90;;;;;;5061602;28;20160;-81
2021/05/04 10:22:41;;;;;;;1999.90;999.90;;;13.70;99.90;;;;;;5061110;28;20169;-81
2021/05/04 10:25:11;;;;;;;1999.90;999.90;;;13.80;99.90;;;;;;5042186;28;20184;-80
2021/05/04 10:27:38;;;;;;;1999.90;999.90;;;14.00;99.90;;;;;;5041247;28;20180;-81
2021/05/04 10:30:06;;;;;;;1999.90;999.90;;;14.00;99.90;;;;;;5058698;28;20576;-81
2021/05/04 10:32:59;;;;;;;1999.90;999.90;;;13.90;99.90;;;;;;5057327;28;20180;-82
2021/05/04 10:35:45;;;;;;;1999.90;999.90;;;14.00;99.90;;;;;;5038736;28;20172;-83
2021/05/04 10:38:55;;;;;;;1999.90;999.90;;;14.10;99.90;;;;;;5035866;28;20189;-83
2021/05/04 10:42:03;;;;;;;;;;;;;;;;;;;;;
2021/05/04 10:51:27;;;;;;;1999.90;999.90;;;14.80;99.90;;;;;;5048796;28;20177;-80
2021/05/04 10:53:52;;;;;;;1999.90;999.90;;;15.00;93.90;;;;;;5096803;22;20492;-78
2021/05/04 10:56:33;;;;;;;1999.90;999.90;;;14.90;90.20;;;;;;5019918;28;20171;-79
2021/05/04 10:58:59;;;;;;;1999.90;999.90;;;14.80;91.70;;;;;;5001094;28;20189;-78
2021/05/04 11:01:25;;;;;;;1999.90;999.90;;;14.40;97.60;;;;;;5002372;28;20440;-81
2021/05/04 11:04:01;;;;;;;1999.90;999.90;;;14.40;99.30;;;;;;5003119;28;20192;-80
2021/05/04 11:06:26;;;;;;;1999.90;999.90;;;14.30;98.50;;;;;;5002836;28;20982;-80
2021/05/04 11:08:52;;;;;;;1999.90;999.90;;;14.30;99.90;;;;;;5020053;28;20217;-80
2021/05/04 11:11:29;;;;;;;1999.90;999.90;;;14.40;99.90;;;;;;5003315;28;20228;-80
2021/05/04 11:14:00;;;;;;;1999.90;999.90;;;14.60;96.90;;;;;;5003022;28;20269;-81
2021/05/04 11:16:31;;;;;;;1999.90;999.90;;;14.90;98.60;;;;;;5020452;28;20424;-81
2021/05/04 11:19:17;;;;;;;1999.90;999.90;;;15.40;89.70;;;;;;5002987;28;20437;-80
2021/05/04 11:21:51;;;;;;;1999.90;999.90;;;15.70;81.00;;;;;;5020128;28;20491;-81
2021/05/04 11:24:19;;;;;;;1999.90;999.90;;;16.00;72.00;;;;;;5020796;28;20463;-80
2021/05/04 11:27:16;;;;;;;1999.90;999.90;;;16.40;50.50;;;;;;5020749;28;20491;-82
2021/05/04 11:29:42;;;;;;;1999.90;999.90;;;16.50;41.70;;;;;;5002540;28;20409;-81
2021/05/04 11:32:19;;;;;;;1999.90;999.90;;;16.50;36.40;;;;;;5020745;28;20816;-82
2021/05/04 11:34:51;;;;;;;1999.90;999.90;;;16.50;38.90;;;;;;5019655;28;20420;-81
2021/05/04 11:37:20;;;;;;;1999.90;999.90;;;16.50;44.20;;;;;;5020056;28;20456;-81
2021/05/04 11:39:52;;;;;;;1999.90;999.90;;;16.80;35.60;;;;;;5019549;28;20420;-81
2021/05/04 11:42:44;;;;;;;1999.90;999.90;;;17.00;29.90;;;;;;5019090;28;20459;-81
2021/05/04 11:45:17;;;;;;;1999.90;999.90;;;17.00;20.00;;;;;;5019967;28;20412;-81
2021/05/04 11:47:46;;;;;;;1999.90;999.90;;;16.90;19.10;;;;;;5019599;28;20421;-82
2021/05/04 11:50:14;;;;;;;1999.90;999.90;;;16.70;11.40;;;;;;5001961;28;20405;-82
2021/05/04 11:52:50;;;;;;;1999.90;999.90;;;16.40;8.10;;;;;;5020038;28;20405;-81
2021/05/04 11:55:18;;;;;;;1999.90;999.90;;;16.30;5.10;;;;;;5020133;28;20424;-82
2021/05/04 11:57:46;;;;;;;1999.90;999.90;;;16.50;2.60;;;;;;5019276;28;20416;-81
2021/05/04 12:00:20;;;;;;;1999.90;999.90;;;16.40;1.00;;;;;;5019655;28;20405;-82
2021/05/04 12:02:54;;;;;;;1999.90;999.90;;;16.30;1.00;;;;;;5018995;28;20741;-80
2021/05/04 12:05:31;;;;;;;1999.90;999.90;;;16.40;1.00;;;;;;5019013;28;20384;-81
2021/05/04 12:07:57;;;;;;;1999.90;999.90;;;16.30;1.00;;;;;;5019106;28;20408;-81
2021/05/04 12:10:30;;;;;;;1999.90;999.90;;;16.40;1.20;;;;;;5019510;28;20382;-81
2021/05/04 12:13:08;;;;;;;1999.90;999.90;;;16.50;1.00;;;;;;5020111;28;20381;-81
2021/05/04 12:15:36;;;;;;;1999.90;999.90;;;16.70;1.00;;;;;;5002092;28;20495;-82
2021/05/04 12:18:13;;;;;;;1999.90;999.90;;;16.60;1.00;;;;;;5001323;28;20501;-81
2021/05/04 12:20:45;;;;;;;1999.90;999.90;;;16.50;1.00;;;;;;5001271;28;20459;-82
2021/05/04 12:23:13;;;;;;;1999.90;999.90;;;16.40;1.00;;;;;;5001714;28;20408;-80
2021/05/04 12:26:06;;;;;;;1999.90;999.90;;;16.30;1.00;;;;;;5018760;28;20404;-81
2021/05/04 12:28:36;;;;;;;1999.90;999.90;;;16.20;1.00;;;;;;5018412;28;20461;-81
2021/05/04 12:31:09;;;;;;;1999.90;999.90;;;16.20;1.00;;;;;;5019064;28;20468;-83
2021/05/04 12:33:38;;;;;;;1999.90;999.90;;;16.00;1.00;;;;;;5000819;28;20409;-81
2021/05/04 12:36:08;;;;;;;1999.90;999.90;;;15.90;1.00;;;;;;4998945;28;20526;-80
2021/05/04 12:41:15;;;;;;;1999.90;999.90;;;16.80;1.00;;;;;;5019295;28;20987;-83
2021/05/04 12:44:06;;;;;;;1999.90;999.90;;;17.00;1.00;;;;;;5019743;28;20385;-80
2021/05/04 12:46:32;;;;;;;1999.90;999.90;;;17.20;1.00;;;;;;5000900;28;20404;-82
2021/05/04 12:49:00;;;;;;;1999.90;999.90;;;17.30;1.00;;;;;;5018461;28;20397;-82
2021/05/04 12:51:31;;;;;;;1999.90;999.90;;;17.40;1.00;;;;;;4999399;28;20776;-81
2021/05/04 12:54:17;;;;;;;1999.90;999.90;;;17.20;1.00;;;;;;5017249;28;20432;-82
2021/05/04 12:56:43;;;;;;;1999.90;999.90;;;17.10;1.00;;;;;;5001049;28;20758;-80
2021/05/04 12:59:11;;;;;;;1999.90;999.90;;;16.90;1.00;;;;;;5017459;28;20409;-83
2021/05/04 13:01:49;;;;;;;1999.90;999.90;;;16.90;1.00;;;;;;5017213;28;20449;-79
2021/05/04 13:04:44;;;;;;;1999.90;999.90;;;17.00;1.00;;;;;;5018152;28;20869;-82
2021/05/04 13:07:49;;;;;;;1999.90;999.90;;;17.10;1.00;;;;;;5002325;28;20425;-81